KIFP/IFP METAR and TAF weather

Enter ICAO airport designator
Station Type Date Time Source
KIFP METAR 2019/12/13 16:49 UTC NOAA

KIFP 131649Z 00000KT 20SM SKC 09/07 A3023


Station Type Date Time Source
KIFP Decoded METAR 2019/12/13 16:49 UTC NOAA

Bullhead City, Laughlin/Bullhead International Airport, AZ, United States (KIFP) 35-09-27N 114-33-34W
Dec 13, 2019 - 11:49 AM EST / 2019.12.13 1649 UTC
Wind: Calm:0
Visibility: 20 mile(s):0
Sky conditions: clear
Temperature: 48 F (9 C)
Dew Point: 44 F (7 C)
Relative Humidity: 87%
Pressure (altimeter): 30.23 in. Hg (1023 hPa)
ob: KIFP 131649Z 00000KT 20SM SKC 09/07 A3023
cycle: 17

Station Type Date Time Source
KIFP TAF 2019/12/13 12:22 UTC NOAA

TAF KIFP 131120Z 1312/1412 01006KT P6SM FEW250
FM131600 01009KT P6SM FEW250
FM132200 VRB04KT P6SM SCT250
FM140200 15007KT P6SM FEW150 BKN250

Example: see airport list